sensor_id;sensor_type;location;lat;lon;timestamp;P1;durP1;ratioP1;P2;durP2;ratioP2
48203;SDS011;33994;50.998;5.864;2022-10-16T00:01:04;5.30;;;1.60;;
48203;SDS011;33994;50.998;5.864;2022-10-16T00:03:51;12.27;;;2.58;;
48203;SDS011;33994;50.998;5.864;2022-10-16T00:06:36;2.30;;;1.50;;
48203;SDS011;33994;50.998;5.864;2022-10-16T00:09:22;3.08;;;1.63;;
48203;SDS011;33994;50.998;5.864;2022-10-16T00:12:07;4.55;;;1.60;;
48203;SDS011;33994;50.998;5.864;2022-10-16T00:14:52;6.22;;;1.70;;
48203;SDS011;33994;50.998;5.864;2022-10-16T00:17:38;3.72;;;1.60;;
48203;SDS011;33994;50.998;5.864;2022-10-16T00:20:23;3.22;;;1.60;;
48203;SDS011;33994;50.998;5.864;2022-10-16T00:23:27;2.40;;;1.50;;
48203;SDS011;33994;50.998;5.864;2022-10-16T00:26:14;3.65;;;1.50;;
48203;SDS011;33994;50.998;5.864;2022-10-16T00:29:02;5.60;;;1.60;;
48203;SDS011;33994;50.998;5.864;2022-10-16T00:31:48;6.10;;;1.83;;
48203;SDS011;33994;50.998;5.864;2022-10-16T00:34:33;4.22;;;1.55;;
48203;SDS011;33994;50.998;5.864;2022-10-16T00:37:19;5.53;;;1.70;;
48203;SDS011;33994;50.998;5.864;2022-10-16T00:40:04;4.22;;;2.33;;
48203;SDS011;33994;50.998;5.864;2022-10-16T00:42:50;2.78;;;1.75;;
48203;SDS011;33994;50.998;5.864;2022-10-16T00:45:36;4.65;;;1.50;;
48203;SDS011;33994;50.998;5.864;2022-10-16T00:48:21;5.13;;;1.70;;
48203;SDS011;33994;50.998;5.864;2022-10-16T00:51:07;3.85;;;1.30;;
48203;SDS011;33994;50.998;5.864;2022-10-16T00:53:53;2.95;;;1.40;;
48203;SDS011;33994;50.998;5.864;2022-10-16T00:56:40;2.42;;;1.25;;
48203;SDS011;33994;50.998;5.864;2022-10-16T00:59:28;3.78;;;1.23;;
48203;SDS011;33994;50.998;5.864;2022-10-16T01:02:15;2.60;;;1.52;;
48203;SDS011;33994;50.998;5.864;2022-10-16T01:05:02;7.10;;;1.38;;
48203;SDS011;33994;50.998;5.864;2022-10-16T01:07:55;3.60;;;1.30;;
48203;SDS011;33994;50.998;5.864;2022-10-16T01:13:41;3.08;;;1.20;;
48203;SDS011;33994;50.998;5.864;2022-10-16T01:16:31;3.35;;;1.50;;
48203;SDS011;33994;50.998;5.864;2022-10-16T01:22:18;3.47;;;1.30;;
48203;SDS011;33994;50.998;5.864;2022-10-16T01:25:09;2.58;;;1.40;;
48203;SDS011;33994;50.998;5.864;2022-10-16T01:28:02;1.95;;;1.23;;
48203;SDS011;33994;50.998;5.864;2022-10-16T01:30:52;2.17;;;1.30;;
48203;SDS011;33994;50.998;5.864;2022-10-16T01:33:43;4.50;;;1.25;;
48203;SDS011;33994;50.998;5.864;2022-10-16T01:36:40;2.28;;;1.10;;
48203;SDS011;33994;50.998;5.864;2022-10-16T01:39:31;1.50;;;1.10;;
48203;SDS011;33994;50.998;5.864;2022-10-16T01:42:21;2.90;;;1.20;;
48203;SDS011;33994;50.998;5.864;2022-10-16T01:45:14;2.58;;;1.30;;
48203;SDS011;33994;50.998;5.864;2022-10-16T01:48:02;3.88;;;1.15;;
48203;SDS011;33994;50.998;5.864;2022-10-16T01:51:01;3.03;;;1.30;;
48203;SDS011;33994;50.998;5.864;2022-10-16T01:53:52;2.33;;;1.10;;
48203;SDS011;33994;50.998;5.864;2022-10-16T01:56:40;1.58;;;1.10;;
48203;SDS011;33994;50.998;5.864;2022-10-16T01:59:27;1.95;;;0.93;;
48203;SDS011;33994;50.998;5.864;2022-10-16T02:02:17;3.60;;;1.38;;
48203;SDS011;33994;50.998;5.864;2022-10-16T02:05:08;7.35;;;1.40;;
48203;SDS011;33994;50.998;5.864;2022-10-16T02:08:00;3.45;;;1.40;;
48203;SDS011;33994;50.998;5.864;2022-10-16T02:10:46;4.07;;;1.58;;
48203;SDS011;33994;50.998;5.864;2022-10-16T02:13:42;2.22;;;1.20;;
48203;SDS011;33994;50.998;5.864;2022-10-16T02:16:36;2.00;;;1.30;;
48203;SDS011;33994;50.998;5.864;2022-10-16T02:22:26;4.30;;;1.30;;
48203;SDS011;33994;50.998;5.864;2022-10-16T02:25:17;6.57;;;1.50;;
48203;SDS011;33994;50.998;5.864;2022-10-16T02:28:08;2.28;;;1.20;;
48203;SDS011;33994;50.998;5.864;2022-10-16T02:31:01;3.97;;;1.35;;
48203;SDS011;33994;50.998;5.864;2022-10-16T02:33:49;4.72;;;1.70;;
48203;SDS011;33994;50.998;5.864;2022-10-16T02:36:37;4.30;;;1.27;;
48203;SDS011;33994;50.998;5.864;2022-10-16T02:39:26;3.65;;;1.20;;
48203;SDS011;33994;50.998;5.864;2022-10-16T02:42:13;3.78;;;1.00;;
48203;SDS011;33994;50.998;5.864;2022-10-16T02:45:00;2.55;;;1.20;;
48203;SDS011;33994;50.998;5.864;2022-10-16T02:47:45;3.65;;;1.05;;
48203;SDS011;33994;50.998;5.864;2022-10-16T02:50:31;2.55;;;0.90;;
48203;SDS011;33994;50.998;5.864;2022-10-16T02:53:16;4.18;;;1.30;;
48203;SDS011;33994;50.998;5.864;2022-10-16T02:56:01;2.13;;;0.88;;
48203;SDS011;33994;50.998;5.864;2022-10-16T02:58:47;7.03;;;1.30;;
48203;SDS011;33994;50.998;5.864;2022-10-16T03:01:32;2.65;;;1.25;;
48203;SDS011;33994;50.998;5.864;2022-10-16T03:04:18;2.90;;;1.10;;
48203;SDS011;33994;50.998;5.864;2022-10-16T03:07:03;2.42;;;1.27;;
48203;SDS011;33994;50.998;5.864;2022-10-16T03:09:49;2.78;;;1.50;;
48203;SDS011;33994;50.998;5.864;2022-10-16T03:12:34;5.90;;;1.63;;
48203;SDS011;33994;50.998;5.864;2022-10-16T03:15:20;3.58;;;1.20;;
48203;SDS011;33994;50.998;5.864;2022-10-16T03:18:05;2.50;;;1.20;;
48203;SDS011;33994;50.998;5.864;2022-10-16T03:20:51;4.22;;;1.50;;
48203;SDS011;33994;50.998;5.864;2022-10-16T03:23:36;4.35;;;1.17;;
48203;SDS011;33994;50.998;5.864;2022-10-16T03:26:21;2.42;;;1.15;;
48203;SDS011;33994;50.998;5.864;2022-10-16T03:29:07;3.50;;;1.30;;
48203;SDS011;33994;50.998;5.864;2022-10-16T03:31:52;3.60;;;1.30;;
48203;SDS011;33994;50.998;5.864;2022-10-16T03:34:38;4.60;;;1.40;;
48203;SDS011;33994;50.998;5.864;2022-10-16T03:37:23;4.63;;;1.80;;
48203;SDS011;33994;50.998;5.864;2022-10-16T03:40:09;1.27;;;1.02;;
48203;SDS011;33994;50.998;5.864;2022-10-16T03:42:55;5.28;;;1.42;;
48203;SDS011;33994;50.998;5.864;2022-10-16T03:45:41;2.33;;;1.40;;
48203;SDS011;33994;50.998;5.864;2022-10-16T03:48:27;2.78;;;1.80;;
48203;SDS011;33994;50.998;5.864;2022-10-16T03:51:12;2.30;;;1.48;;
48203;SDS011;33994;50.998;5.864;2022-10-16T03:53:57;4.38;;;1.60;;
48203;SDS011;33994;50.998;5.864;2022-10-16T03:56:43;5.70;;;1.52;;
48203;SDS011;33994;50.998;5.864;2022-10-16T03:59:29;3.05;;;1.55;;
48203;SDS011;33994;50.998;5.864;2022-10-16T04:02:14;4.95;;;1.63;;
48203;SDS011;33994;50.998;5.864;2022-10-16T04:05:00;2.30;;;1.30;;
48203;SDS011;33994;50.998;5.864;2022-10-16T04:07:45;3.83;;;1.42;;
48203;SDS011;33994;50.998;5.864;2022-10-16T04:10:31;3.50;;;1.40;;
48203;SDS011;33994;50.998;5.864;2022-10-16T04:13:16;4.70;;;1.73;;
48203;SDS011;33994;50.998;5.864;2022-10-16T04:16:02;4.88;;;1.45;;
48203;SDS011;33994;50.998;5.864;2022-10-16T04:18:47;4.07;;;1.50;;
48203;SDS011;33994;50.998;5.864;2022-10-16T04:21:33;3.70;;;1.50;;
48203;SDS011;33994;50.998;5.864;2022-10-16T04:24:18;4.15;;;1.95;;
48203;SDS011;33994;50.998;5.864;2022-10-16T04:27:04;5.65;;;1.48;;
48203;SDS011;33994;50.998;5.864;2022-10-16T04:29:49;4.38;;;1.83;;
48203;SDS011;33994;50.998;5.864;2022-10-16T04:32:35;3.60;;;1.60;;
48203;SDS011;33994;50.998;5.864;2022-10-16T04:35:20;3.58;;;1.77;;
48203;SDS011;33994;50.998;5.864;2022-10-16T04:38:07;4.88;;;1.50;;
48203;SDS011;33994;50.998;5.864;2022-10-16T04:40:52;4.32;;;1.50;;
48203;SDS011;33994;50.998;5.864;2022-10-16T04:43:38;6.32;;;1.92;;
48203;SDS011;33994;50.998;5.864;2022-10-16T04:46:23;3.67;;;1.50;;
48203;SDS011;33994;50.998;5.864;2022-10-16T04:49:09;3.95;;;1.60;;
48203;SDS011;33994;50.998;5.864;2022-10-16T04:51:54;3.92;;;1.77;;
48203;SDS011;33994;50.998;5.864;2022-10-16T04:54:39;3.45;;;1.58;;
48203;SDS011;33994;50.998;5.864;2022-10-16T04:57:25;4.43;;;1.60;;
48203;SDS011;33994;50.998;5.864;2022-10-16T05:00:10;3.67;;;1.85;;
48203;SDS011;33994;50.998;5.864;2022-10-16T05:02:56;3.97;;;1.90;;
48203;SDS011;33994;50.998;5.864;2022-10-16T05:05:43;6.28;;;2.15;;
48203;SDS011;33994;50.998;5.864;2022-10-16T05:08:30;4.60;;;1.65;;
48203;SDS011;33994;50.998;5.864;2022-10-16T05:11:15;2.95;;;1.85;;
48203;SDS011;33994;50.998;5.864;2022-10-16T05:14:01;6.60;;;2.10;;
48203;SDS011;33994;50.998;5.864;2022-10-16T05:16:46;2.50;;;1.80;;
48203;SDS011;33994;50.998;5.864;2022-10-16T05:19:32;3.33;;;1.65;;
48203;SDS011;33994;50.998;5.864;2022-10-16T05:22:17;3.80;;;1.83;;
48203;SDS011;33994;50.998;5.864;2022-10-16T05:25:03;7.32;;;2.28;;
48203;SDS011;33994;50.998;5.864;2022-10-16T05:27:49;5.50;;;2.10;;
48203;SDS011;33994;50.998;5.864;2022-10-16T05:30:36;2.50;;;2.08;;
48203;SDS011;33994;50.998;5.864;2022-10-16T05:33:23;7.85;;;2.60;;
48203;SDS011;33994;50.998;5.864;2022-10-16T05:36:10;2.88;;;1.85;;
48203;SDS011;33994;50.998;5.864;2022-10-16T05:38:55;5.88;;;1.85;;
48203;SDS011;33994;50.998;5.864;2022-10-16T05:41:41;5.88;;;1.90;;
48203;SDS011;33994;50.998;5.864;2022-10-16T05:44:27;8.20;;;2.10;;
48203;SDS011;33994;50.998;5.864;2022-10-16T05:47:12;2.72;;;2.00;;
48203;SDS011;33994;50.998;5.864;2022-10-16T05:49:59;4.18;;;2.00;;
48203;SDS011;33994;50.998;5.864;2022-10-16T05:52:44;3.33;;;2.13;;
48203;SDS011;33994;50.998;5.864;2022-10-16T05:55:30;5.13;;;2.20;;
48203;SDS011;33994;50.998;5.864;2022-10-16T05:58:15;5.13;;;2.25;;
48203;SDS011;33994;50.998;5.864;2022-10-16T06:01:02;6.45;;;2.20;;
48203;SDS011;33994;50.998;5.864;2022-10-16T06:03:52;5.68;;;1.90;;
48203;SDS011;33994;50.998;5.864;2022-10-16T06:06:38;6.18;;;2.10;;
48203;SDS011;33994;50.998;5.864;2022-10-16T06:09:23;2.42;;;1.80;;
48203;SDS011;33994;50.998;5.864;2022-10-16T06:12:09;5.07;;;2.20;;
48203;SDS011;33994;50.998;5.864;2022-10-16T06:14:54;3.85;;;2.05;;
48203;SDS011;33994;50.998;5.864;2022-10-16T06:17:40;4.82;;;1.92;;
48203;SDS011;33994;50.998;5.864;2022-10-16T06:20:26;4.70;;;2.05;;
48203;SDS011;33994;50.998;5.864;2022-10-16T06:23:11;2.25;;;1.70;;
48203;SDS011;33994;50.998;5.864;2022-10-16T06:26:03;5.90;;;2.00;;
48203;SDS011;33994;50.998;5.864;2022-10-16T06:28:50;3.40;;;1.90;;
48203;SDS011;33994;50.998;5.864;2022-10-16T06:31:35;3.58;;;1.85;;
48203;SDS011;33994;50.998;5.864;2022-10-16T06:34:21;6.28;;;2.15;;
48203;SDS011;33994;50.998;5.864;2022-10-16T06:37:06;6.63;;;1.70;;
48203;SDS011;33994;50.998;5.864;2022-10-16T06:39:52;2.63;;;1.88;;
48203;SDS011;33994;50.998;5.864;2022-10-16T06:42:37;8.80;;;2.30;;
48203;SDS011;33994;50.998;5.864;2022-10-16T06:45:23;4.75;;;2.00;;
48203;SDS011;33994;50.998;5.864;2022-10-16T06:48:08;5.57;;;2.35;;
48203;SDS011;33994;50.998;5.864;2022-10-16T06:51:04;6.53;;;1.98;;
48203;SDS011;33994;50.998;5.864;2022-10-16T06:53:50;5.03;;;1.85;;
48203;SDS011;33994;50.998;5.864;2022-10-16T06:56:37;7.90;;;1.80;;
48203;SDS011;33994;50.998;5.864;2022-10-16T06:59:23;5.65;;;2.28;;
48203;SDS011;33994;50.998;5.864;2022-10-16T07:02:08;5.82;;;2.30;;
48203;SDS011;33994;50.998;5.864;2022-10-16T07:04:54;3.58;;;1.67;;
48203;SDS011;33994;50.998;5.864;2022-10-16T07:07:40;3.50;;;1.75;;
48203;SDS011;33994;50.998;5.864;2022-10-16T07:10:26;5.50;;;1.50;;
48203;SDS011;33994;50.998;5.864;2022-10-16T07:13:11;4.55;;;1.90;;
48203;SDS011;33994;50.998;5.864;2022-10-16T07:15:57;4.32;;;1.88;;
48203;SDS011;33994;50.998;5.864;2022-10-16T07:18:43;7.45;;;2.03;;
48203;SDS011;33994;50.998;5.864;2022-10-16T07:21:31;4.57;;;1.80;;
48203;SDS011;33994;50.998;5.864;2022-10-16T07:24:19;6.60;;;2.22;;
48203;SDS011;33994;50.998;5.864;2022-10-16T07:27:05;5.22;;;1.90;;
48203;SDS011;33994;50.998;5.864;2022-10-16T07:29:50;5.30;;;2.38;;
48203;SDS011;33994;50.998;5.864;2022-10-16T07:32:35;4.75;;;1.73;;
48203;SDS011;33994;50.998;5.864;2022-10-16T07:35:21;5.60;;;2.15;;
48203;SDS011;33994;50.998;5.864;2022-10-16T07:38:06;3.72;;;1.88;;
48203;SDS011;33994;50.998;5.864;2022-10-16T07:40:58;4.55;;;1.92;;
48203;SDS011;33994;50.998;5.864;2022-10-16T07:43:47;8.93;;;2.33;;
48203;SDS011;33994;50.998;5.864;2022-10-16T07:46:33;3.97;;;2.03;;
48203;SDS011;33994;50.998;5.864;2022-10-16T07:49:19;4.10;;;1.83;;
48203;SDS011;33994;50.998;5.864;2022-10-16T07:52:05;5.57;;;1.50;;
48203;SDS011;33994;50.998;5.864;2022-10-16T07:54:50;4.10;;;1.80;;
48203;SDS011;33994;50.998;5.864;2022-10-16T07:57:36;5.90;;;2.05;;
48203;SDS011;33994;50.998;5.864;2022-10-16T08:00:21;4.00;;;2.45;;
48203;SDS011;33994;50.998;5.864;2022-10-16T08:03:07;2.83;;;1.55;;
48203;SDS011;33994;50.998;5.864;2022-10-16T08:05:53;7.22;;;2.00;;
48203;SDS011;33994;50.998;5.864;2022-10-16T08:08:38;6.07;;;1.30;;
48203;SDS011;33994;50.998;5.864;2022-10-16T08:11:24;3.80;;;1.40;;
48203;SDS011;33994;50.998;5.864;2022-10-16T08:14:09;2.53;;;1.58;;
48203;SDS011;33994;50.998;5.864;2022-10-16T08:16:55;5.07;;;1.40;;
48203;SDS011;33994;50.998;5.864;2022-10-16T08:19:47;3.50;;;1.38;;
48203;SDS011;33994;50.998;5.864;2022-10-16T08:22:33;4.13;;;1.70;;
48203;SDS011;33994;50.998;5.864;2022-10-16T08:25:18;5.07;;;1.40;;
48203;SDS011;33994;50.998;5.864;2022-10-16T08:28:04;7.18;;;1.42;;
48203;SDS011;33994;50.998;5.864;2022-10-16T08:30:50;3.55;;;1.40;;
48203;SDS011;33994;50.998;5.864;2022-10-16T08:33:36;3.45;;;1.20;;
48203;SDS011;33994;50.998;5.864;2022-10-16T08:36:22;4.60;;;1.50;;
48203;SDS011;33994;50.998;5.864;2022-10-16T08:39:07;7.38;;;1.67;;
48203;SDS011;33994;50.998;5.864;2022-10-16T08:50:49;4.65;;;1.20;;
48203;SDS011;33994;50.998;5.864;2022-10-16T08:53:37;9.07;;;1.55;;
48203;SDS011;33994;50.998;5.864;2022-10-16T08:56:29;5.10;;;1.48;;
48203;SDS011;33994;50.998;5.864;2022-10-16T08:59:15;6.07;;;1.40;;
48203;SDS011;33994;50.998;5.864;2022-10-16T09:02:01;4.38;;;1.25;;
48203;SDS011;33994;50.998;5.864;2022-10-16T09:07:56;2.72;;;0.90;;
48203;SDS011;33994;50.998;5.864;2022-10-16T09:11:06;4.43;;;1.02;;
48203;SDS011;33994;50.998;5.864;2022-10-16T09:25:50;5.32;;;1.52;;
48203;SDS011;33994;50.998;5.864;2022-10-16T09:28:35;1.90;;;0.90;;
48203;SDS011;33994;50.998;5.864;2022-10-16T09:31:21;6.80;;;1.02;;
48203;SDS011;33994;50.998;5.864;2022-10-16T09:34:13;5.72;;;0.95;;
48203;SDS011;33994;50.998;5.864;2022-10-16T09:37:22;4.15;;;1.20;;
48203;SDS011;33994;50.998;5.864;2022-10-16T09:40:13;3.40;;;0.93;;
48203;SDS011;33994;50.998;5.864;2022-10-16T09:46:34;3.35;;;0.90;;
48203;SDS011;33994;50.998;5.864;2022-10-16T09:52:11;2.55;;;0.90;;
48203;SDS011;33994;50.998;5.864;2022-10-16T09:55:00;5.75;;;0.90;;
48203;SDS011;33994;50.998;5.864;2022-10-16T09:57:48;3.63;;;1.00;;
48203;SDS011;33994;50.998;5.864;2022-10-16T10:00:34;4.13;;;0.73;;
48203;SDS011;33994;50.998;5.864;2022-10-16T10:03:30;1.40;;;0.70;;
48203;SDS011;33994;50.998;5.864;2022-10-16T10:06:33;3.20;;;0.85;;
48203;SDS011;33994;50.998;5.864;2022-10-16T10:12:29;5.05;;;1.25;;
48203;SDS011;33994;50.998;5.864;2022-10-16T10:15:18;1.35;;;0.70;;
48203;SDS011;33994;50.998;5.864;2022-10-16T10:18:16;5.30;;;1.08;;
48203;SDS011;33994;50.998;5.864;2022-10-16T10:21:03;3.17;;;0.95;;
48203;SDS011;33994;50.998;5.864;2022-10-16T10:23:56;2.90;;;0.90;;
48203;SDS011;33994;50.998;5.864;2022-10-16T10:26:45;3.95;;;0.63;;
48203;SDS011;33994;50.998;5.864;2022-10-16T10:29:36;3.17;;;0.82;;
48203;SDS011;33994;50.998;5.864;2022-10-16T10:39:40;2.40;;;0.70;;
48203;SDS011;33994;50.998;5.864;2022-10-16T10:43:01;4.78;;;1.02;;
48203;SDS011;33994;50.998;5.864;2022-10-16T10:46:00;3.55;;;1.17;;
48203;SDS011;33994;50.998;5.864;2022-10-16T10:48:54;3.88;;;0.70;;
48203;SDS011;33994;50.998;5.864;2022-10-16T11:06:43;3.58;;;0.93;;
48203;SDS011;33994;50.998;5.864;2022-10-16T11:09:44;3.33;;;0.80;;
48203;SDS011;33994;50.998;5.864;2022-10-16T11:12:38;3.00;;;0.80;;
48203;SDS011;33994;50.998;5.864;2022-10-16T11:15:29;6.35;;;0.93;;
48203;SDS011;33994;50.998;5.864;2022-10-16T11:18:19;5.00;;;1.00;;
48203;SDS011;33994;50.998;5.864;2022-10-16T11:21:10;3.45;;;1.00;;
48203;SDS011;33994;50.998;5.864;2022-10-16T11:24:00;3.40;;;0.80;;
48203;SDS011;33994;50.998;5.864;2022-10-16T11:26:51;2.95;;;1.40;;
48203;SDS011;33994;50.998;5.864;2022-10-16T11:29:43;2.42;;;1.10;;
48203;SDS011;33994;50.998;5.864;2022-10-16T11:32:36;4.18;;;0.90;;
48203;SDS011;33994;50.998;5.864;2022-10-16T11:41:31;2.53;;;0.85;;
48203;SDS011;33994;50.998;5.864;2022-10-16T11:47:45;1.95;;;0.85;;
48203;SDS011;33994;50.998;5.864;2022-10-16T11:50:43;4.20;;;1.00;;
48203;SDS011;33994;50.998;5.864;2022-10-16T11:53:39;1.92;;;0.60;;
48203;SDS011;33994;50.998;5.864;2022-10-16T11:56:27;3.10;;;1.10;;
48203;SDS011;33994;50.998;5.864;2022-10-16T12:08:19;6.18;;;0.82;;
48203;SDS011;33994;50.998;5.864;2022-10-16T12:11:09;1.05;;;0.65;;
48203;SDS011;33994;50.998;5.864;2022-10-16T12:16:58;1.73;;;0.70;;
48203;SDS011;33994;50.998;5.864;2022-10-16T12:19:45;1.88;;;0.70;;
48203;SDS011;33994;50.998;5.864;2022-10-16T12:23:01;2.67;;;0.77;;
48203;SDS011;33994;50.998;5.864;2022-10-16T12:25:53;1.58;;;0.57;;
48203;SDS011;33994;50.998;5.864;2022-10-16T12:28:40;5.55;;;1.20;;
48203;SDS011;33994;50.998;5.864;2022-10-16T12:31:34;5.18;;;1.00;;
48203;SDS011;33994;50.998;5.864;2022-10-16T12:34:41;1.92;;;0.93;;
48203;SDS011;33994;50.998;5.864;2022-10-16T12:37:32;2.10;;;0.80;;
48203;SDS011;33994;50.998;5.864;2022-10-16T12:40:26;1.67;;;0.70;;
48203;SDS011;33994;50.998;5.864;2022-10-16T12:51:59;1.48;;;0.60;;
48203;SDS011;33994;50.998;5.864;2022-10-16T12:54:44;2.38;;;0.93;;
48203;SDS011;33994;50.998;5.864;2022-10-16T13:19:30;3.80;;;0.65;;
48203;SDS011;33994;50.998;5.864;2022-10-16T13:28:12;2.17;;;0.85;;
48203;SDS011;33994;50.998;5.864;2022-10-16T13:30:59;3.45;;;0.57;;
48203;SDS011;33994;50.998;5.864;2022-10-16T13:33:47;3.70;;;0.60;;
48203;SDS011;33994;50.998;5.864;2022-10-16T13:36:52;3.17;;;0.80;;
48203;SDS011;33994;50.998;5.864;2022-10-16T13:39:37;2.38;;;0.73;;
48203;SDS011;33994;50.998;5.864;2022-10-16T13:42:24;2.80;;;0.90;;
48203;SDS011;33994;50.998;5.864;2022-10-16T13:45:23;2.13;;;0.70;;
48203;SDS011;33994;50.998;5.864;2022-10-16T13:48:10;3.22;;;0.73;;
48203;SDS011;33994;50.998;5.864;2022-10-16T13:51:00;1.55;;;0.80;;
48203;SDS011;33994;50.998;5.864;2022-10-16T13:53:57;4.25;;;0.60;;
48203;SDS011;33994;50.998;5.864;2022-10-16T13:56:43;3.28;;;0.70;;
48203;SDS011;33994;50.998;5.864;2022-10-16T13:59:35;2.97;;;1.25;;
48203;SDS011;33994;50.998;5.864;2022-10-16T14:02:35;4.18;;;0.68;;
48203;SDS011;33994;50.998;5.864;2022-10-16T14:05:24;2.97;;;0.63;;
48203;SDS011;33994;50.998;5.864;2022-10-16T14:08:10;3.65;;;0.80;;
48203;SDS011;33994;50.998;5.864;2022-10-16T14:10:57;2.40;;;0.65;;
48203;SDS011;33994;50.998;5.864;2022-10-16T14:13:45;3.10;;;0.60;;
48203;SDS011;33994;50.998;5.864;2022-10-16T14:16:31;1.85;;;0.60;;
48203;SDS011;33994;50.998;5.864;2022-10-16T14:19:25;2.35;;;0.70;;
48203;SDS011;33994;50.998;5.864;2022-10-16T14:25:25;2.60;;;0.70;;
48203;SDS011;33994;50.998;5.864;2022-10-16T14:30:59;2.85;;;0.77;;
48203;SDS011;33994;50.998;5.864;2022-10-16T14:33:46;2.45;;;0.70;;
48203;SDS011;33994;50.998;5.864;2022-10-16T14:36:31;2.05;;;0.88;;
48203;SDS011;33994;50.998;5.864;2022-10-16T14:42:14;2.72;;;0.75;;
48203;SDS011;33994;50.998;5.864;2022-10-16T14:45:07;1.38;;;0.60;;
48203;SDS011;33994;50.998;5.864;2022-10-16T14:47:56;2.47;;;0.90;;
48203;SDS011;33994;50.998;5.864;2022-10-16T14:50:44;3.80;;;0.90;;
48203;SDS011;33994;50.998;5.864;2022-10-16T14:53:29;1.92;;;0.70;;
48203;SDS011;33994;50.998;5.864;2022-10-16T14:59:05;2.35;;;1.15;;
48203;SDS011;33994;50.998;5.864;2022-10-16T15:01:59;7.50;;;2.60;;
48203;SDS011;33994;50.998;5.864;2022-10-16T15:04:54;2.20;;;1.27;;
48203;SDS011;33994;50.998;5.864;2022-10-16T15:07:39;3.78;;;1.20;;
48203;SDS011;33994;50.998;5.864;2022-10-16T15:10:25;3.00;;;1.25;;
48203;SDS011;33994;50.998;5.864;2022-10-16T15:13:12;2.80;;;0.80;;
48203;SDS011;33994;50.998;5.864;2022-10-16T15:15:58;4.10;;;0.80;;
48203;SDS011;33994;50.998;5.864;2022-10-16T15:18:44;2.70;;;1.00;;
48203;SDS011;33994;50.998;5.864;2022-10-16T15:21:30;1.65;;;1.15;;
48203;SDS011;33994;50.998;5.864;2022-10-16T15:24:17;5.80;;;2.50;;
48203;SDS011;33994;50.998;5.864;2022-10-16T15:27:03;7.32;;;3.15;;
48203;SDS011;33994;50.998;5.864;2022-10-16T15:29:48;7.47;;;2.50;;
48203;SDS011;33994;50.998;5.864;2022-10-16T15:32:34;4.65;;;1.70;;
48203;SDS011;33994;50.998;5.864;2022-10-16T15:35:19;3.10;;;1.20;;
48203;SDS011;33994;50.998;5.864;2022-10-16T15:38:05;5.45;;;1.60;;
48203;SDS011;33994;50.998;5.864;2022-10-16T15:40:50;3.85;;;1.60;;
48203;SDS011;33994;50.998;5.864;2022-10-16T15:43:36;4.40;;;1.83;;
48203;SDS011;33994;50.998;5.864;2022-10-16T15:46:22;6.55;;;2.03;;
48203;SDS011;33994;50.998;5.864;2022-10-16T15:51:55;6.60;;;3.17;;
48203;SDS011;33994;50.998;5.864;2022-10-16T15:54:40;7.00;;;3.55;;
48203;SDS011;33994;50.998;5.864;2022-10-16T15:57:27;9.35;;;3.15;;
48203;SDS011;33994;50.998;5.864;2022-10-16T16:00:15;8.70;;;3.10;;
48203;SDS011;33994;50.998;5.864;2022-10-16T16:03:03;7.78;;;2.00;;
48203;SDS011;33994;50.998;5.864;2022-10-16T16:05:49;4.35;;;2.03;;
48203;SDS011;33994;50.998;5.864;2022-10-16T16:08:34;5.38;;;2.58;;
48203;SDS011;33994;50.998;5.864;2022-10-16T16:11:20;7.82;;;3.38;;
48203;SDS011;33994;50.998;5.864;2022-10-16T16:14:07;11.40;;;3.63;;
48203;SDS011;33994;50.998;5.864;2022-10-16T16:16:56;9.60;;;4.30;;
48203;SDS011;33994;50.998;5.864;2022-10-16T16:19:45;9.27;;;4.53;;
48203;SDS011;33994;50.998;5.864;2022-10-16T16:25:16;8.73;;;3.92;;
48203;SDS011;33994;50.998;5.864;2022-10-16T16:28:02;8.13;;;3.70;;
48203;SDS011;33994;50.998;5.864;2022-10-16T16:30:50;3.70;;;2.42;;
48203;SDS011;33994;50.998;5.864;2022-10-16T16:33:36;8.85;;;3.10;;
48203;SDS011;33994;50.998;5.864;2022-10-16T16:36:21;4.93;;;2.70;;
48203;SDS011;33994;50.998;5.864;2022-10-16T16:39:07;7.55;;;2.88;;
48203;SDS011;33994;50.998;5.864;2022-10-16T16:41:52;5.45;;;2.92;;
48203;SDS011;33994;50.998;5.864;2022-10-16T16:44:40;7.55;;;4.75;;
48203;SDS011;33994;50.998;5.864;2022-10-16T16:47:26;9.40;;;2.97;;
48203;SDS011;33994;50.998;5.864;2022-10-16T16:50:11;5.15;;;3.00;;
48203;SDS011;33994;50.998;5.864;2022-10-16T16:52:57;7.43;;;3.13;;
48203;SDS011;33994;50.998;5.864;2022-10-16T16:55:42;9.18;;;3.75;;
48203;SDS011;33994;50.998;5.864;2022-10-16T16:58:27;8.30;;;4.13;;
48203;SDS011;33994;50.998;5.864;2022-10-16T17:01:13;7.53;;;3.70;;
48203;SDS011;33994;50.998;5.864;2022-10-16T17:03:58;7.70;;;3.35;;
48203;SDS011;33994;50.998;5.864;2022-10-16T17:06:46;6.25;;;2.92;;
48203;SDS011;33994;50.998;5.864;2022-10-16T17:09:32;6.82;;;3.20;;
48203;SDS011;33994;50.998;5.864;2022-10-16T17:12:17;7.78;;;3.65;;
48203;SDS011;33994;50.998;5.864;2022-10-16T17:15:03;7.35;;;3.45;;
48203;SDS011;33994;50.998;5.864;2022-10-16T17:17:49;7.20;;;3.30;;
48203;SDS011;33994;50.998;5.864;2022-10-16T17:20:35;9.40;;;3.22;;
48203;SDS011;33994;50.998;5.864;2022-10-16T17:23:20;6.05;;;3.03;;
48203;SDS011;33994;50.998;5.864;2022-10-16T17:26:07;9.63;;;3.97;;
48203;SDS011;33994;50.998;5.864;2022-10-16T17:28:56;5.28;;;3.03;;
48203;SDS011;33994;50.998;5.864;2022-10-16T17:31:44;4.85;;;2.65;;
48203;SDS011;33994;50.998;5.864;2022-10-16T17:34:32;6.97;;;3.15;;
48203;SDS011;33994;50.998;5.864;2022-10-16T17:37:18;7.25;;;2.72;;
48203;SDS011;33994;50.998;5.864;2022-10-16T17:40:03;4.78;;;2.58;;
48203;SDS011;33994;50.998;5.864;2022-10-16T17:42:49;6.47;;;3.00;;
48203;SDS011;33994;50.998;5.864;2022-10-16T17:45:35;8.00;;;3.70;;
48203;SDS011;33994;50.998;5.864;2022-10-16T17:48:22;6.65;;;4.38;;
48203;SDS011;33994;50.998;5.864;2022-10-16T17:51:09;9.57;;;3.75;;
48203;SDS011;33994;50.998;5.864;2022-10-16T17:53:57;7.85;;;4.25;;
48203;SDS011;33994;50.998;5.864;2022-10-16T17:56:45;7.45;;;4.25;;
48203;SDS011;33994;50.998;5.864;2022-10-16T17:59:31;9.93;;;3.90;;
48203;SDS011;33994;50.998;5.864;2022-10-16T18:02:16;5.93;;;3.63;;
48203;SDS011;33994;50.998;5.864;2022-10-16T18:05:02;7.50;;;3.83;;
48203;SDS011;33994;50.998;5.864;2022-10-16T18:07:49;8.65;;;4.32;;
48203;SDS011;33994;50.998;5.864;2022-10-16T18:10:34;7.20;;;3.50;;
48203;SDS011;33994;50.998;5.864;2022-10-16T18:13:20;9.98;;;3.53;;
48203;SDS011;33994;50.998;5.864;2022-10-16T18:16:07;11.90;;;3.30;;
48203;SDS011;33994;50.998;5.864;2022-10-16T18:18:56;9.27;;;4.72;;
48203;SDS011;33994;50.998;5.864;2022-10-16T18:21:42;11.00;;;4.15;;
48203;SDS011;33994;50.998;5.864;2022-10-16T18:24:28;5.80;;;3.15;;
48203;SDS011;33994;50.998;5.864;2022-10-16T18:27:14;6.35;;;3.13;;
48203;SDS011;33994;50.998;5.864;2022-10-16T18:29:59;8.18;;;3.63;;
48203;SDS011;33994;50.998;5.864;2022-10-16T18:32:45;5.93;;;3.97;;
48203;SDS011;33994;50.998;5.864;2022-10-16T18:35:30;4.68;;;3.10;;
48203;SDS011;33994;50.998;5.864;2022-10-16T18:38:19;8.27;;;3.42;;
48203;SDS011;33994;50.998;5.864;2022-10-16T18:41:05;11.68;;;3.53;;
48203;SDS011;33994;50.998;5.864;2022-10-16T18:43:50;8.80;;;3.22;;
48203;SDS011;33994;50.998;5.864;2022-10-16T18:46:36;5.40;;;2.72;;
48203;SDS011;33994;50.998;5.864;2022-10-16T18:49:22;8.10;;;3.35;;
48203;SDS011;33994;50.998;5.864;2022-10-16T18:52:08;6.15;;;2.85;;
48203;SDS011;33994;50.998;5.864;2022-10-16T18:54:54;8.07;;;3.70;;
48203;SDS011;33994;50.998;5.864;2022-10-16T18:57:41;5.72;;;3.53;;
48203;SDS011;33994;50.998;5.864;2022-10-16T19:00:26;9.07;;;3.50;;
48203;SDS011;33994;50.998;5.864;2022-10-16T19:03:12;9.40;;;4.15;;
48203;SDS011;33994;50.998;5.864;2022-10-16T19:05:58;9.02;;;4.70;;
48203;SDS011;33994;50.998;5.864;2022-10-16T19:08:47;7.75;;;3.67;;
48203;SDS011;33994;50.998;5.864;2022-10-16T19:11:33;5.63;;;3.30;;